createdAt,value
2017-08-18T00:00:18.498Z,90.72
2017-08-18T00:02:53.561Z,90.84
2017-08-18T00:05:28.290Z,91.09
2017-08-18T00:08:03.131Z,90.94
2017-08-18T00:10:38.115Z,91.18
2017-08-18T00:13:12.839Z,91.06
2017-08-18T00:15:47.598Z,90.62
2017-08-18T00:18:22.213Z,90.83
2017-08-18T00:20:57.956Z,91.05
2017-08-18T00:23:32.330Z,91.14
2017-08-18T00:26:07.263Z,90.93
2017-08-18T00:28:42.292Z,90.91
2017-08-18T00:31:16.666Z,90.95
2017-08-18T00:33:51.518Z,91.21
2017-08-18T00:36:27.356Z,91.31
2017-08-18T00:39:02.071Z,91.35
2017-08-18T00:41:36.369Z,91.47
2017-08-18T00:44:11.430Z,91.53
2017-08-18T00:46:46.140Z,91.76
2017-08-18T00:49:20.870Z,91.95
2017-08-18T00:51:55.719Z,91.67
2017-08-18T00:54:31.056Z,91.16
2017-08-18T00:57:05.930Z,91.07
2017-08-18T00:59:40.911Z,90.90
2017-08-18T01:02:15.458Z,90.44
2017-08-18T01:04:50.051Z,90.34
2017-08-18T01:07:24.795Z,90.65
2017-08-18T01:09:59.463Z,90.50
2017-08-18T01:12:34.247Z,90.53
2017-08-18T01:15:09.181Z,90.31
2017-08-18T01:17:44.855Z,90.30
2017-08-18T01:20:19.264Z,90.52
2017-08-18T01:22:54.414Z,90.33
2017-08-18T01:25:29.243Z,89.77
2017-08-18T01:28:04.172Z,89.36
2017-08-18T01:30:39.324Z,89.24
2017-08-18T01:33:14.667Z,89.24
2017-08-18T01:35:49.375Z,89.36
2017-08-18T01:38:24.326Z,89.32
2017-08-18T01:40:59.027Z,89.19
2017-08-18T01:43:33.739Z,88.76
2017-08-18T01:46:09.443Z,88.69
2017-08-18T01:48:44.323Z,88.89
2017-08-18T01:51:20.082Z,88.93
2017-08-18T01:53:54.831Z,88.97
2017-08-18T01:56:29.580Z,89.29
2017-08-18T01:59:04.439Z,89.20
2017-08-18T02:01:39.863Z,89.09
2017-08-18T02:04:15.167Z,88.86
2017-08-18T02:06:49.986Z,88.76
2017-08-18T02:09:24.428Z,89.02
2017-08-18T02:11:59.747Z,89.22
2017-08-18T02:14:34.940Z,89.62
2017-08-18T02:17:09.588Z,89.80
2017-08-18T02:19:44.031Z,89.96
2017-08-18T02:22:19.743Z,89.54
2017-08-18T02:24:54.342Z,89.42
2017-08-18T02:27:29.066Z,89.48
2017-08-18T02:30:03.726Z,89.36
2017-08-18T02:32:38.623Z,89.62
2017-08-18T02:35:13.355Z,89.92
2017-08-18T02:37:48.212Z,90.26
2017-08-18T02:40:23.119Z,90.13
2017-08-18T02:42:58.167Z,90.11
2017-08-18T02:45:32.831Z,90.47
2017-08-18T02:48:07.879Z,90.74
2017-08-18T02:50:42.561Z,90.42
2017-08-18T02:53:17.227Z,90.25
2017-08-18T02:55:51.986Z,90.29
2017-08-18T02:58:26.634Z,90.64
2017-08-18T03:01:01.361Z,90.72
2017-08-18T03:03:37.292Z,90.66
2017-08-18T03:06:12.047Z,90.59
2017-08-18T03:08:48.721Z,90.75
2017-08-18T03:11:23.454Z,90.92
2017-08-18T03:13:58.312Z,90.95
2017-08-18T03:16:33.111Z,90.95
2017-08-18T03:19:07.767Z,91.52
2017-08-18T03:21:42.756Z,91.81
2017-08-18T03:24:17.524Z,91.70
2017-08-18T03:26:52.354Z,91.28
2017-08-18T03:29:27.059Z,91.33
2017-08-18T03:32:03.023Z,91.36
2017-08-18T03:34:37.827Z,91.53
2017-08-18T03:37:12.947Z,91.75
2017-08-18T03:39:47.354Z,92.10
2017-08-18T03:42:21.730Z,92.12
2017-08-18T03:44:57.269Z,92.29
2017-08-18T03:47:31.850Z,92.08
2017-08-18T03:50:06.467Z,91.68
2017-08-18T03:52:41.667Z,92.32
2017-08-18T03:55:16.293Z,92.81
2017-08-18T03:57:50.919Z,93.35
2017-08-18T04:00:26.715Z,93.70
2017-08-18T04:03:01.399Z,94.13
2017-08-18T04:05:36.132Z,94.31
2017-08-18T04:08:11.016Z,93.98
2017-08-18T04:10:45.717Z,94.40
2017-08-18T04:13:21.367Z,94.50
2017-08-18T04:15:56.195Z,94.95
2017-08-18T04:18:30.904Z,95.09
2017-08-18T04:21:05.767Z,94.87
2017-08-18T04:23:41.008Z,94.60
2017-08-18T04:26:17.115Z,94.54
2017-08-18T04:28:52.072Z,94.26
2017-08-18T04:31:26.856Z,94.14
2017-08-18T04:34:01.605Z,93.98
2017-08-18T04:36:36.549Z,94.30
2017-08-18T04:39:11.447Z,94.02
2017-08-18T04:41:46.215Z,93.96
2017-08-18T04:44:21.063Z,94.42
2017-08-18T04:46:55.592Z,94.21
2017-08-18T04:49:30.591Z,93.83
2017-08-18T04:52:05.393Z,93.93
2017-08-18T04:54:40.388Z,93.55
2017-08-18T04:57:15.578Z,93.46
2017-08-18T04:59:50.364Z,93.18
2017-08-18T05:02:25.339Z,92.58
2017-08-18T05:04:59.744Z,92.36
2017-08-18T05:07:34.470Z,92.32
2017-08-18T05:10:09.066Z,92.04
2017-08-18T05:12:43.835Z,91.65
2017-08-18T05:15:19.647Z,91.05
2017-08-18T05:17:54.380Z,90.73
2017-08-18T05:20:29.004Z,90.59
2017-08-18T05:23:03.743Z,90.68
2017-08-18T05:25:38.584Z,91.46
2017-08-18T05:28:13.317Z,90.99
2017-08-18T05:30:48.948Z,90.22
2017-08-18T05:33:23.771Z,90.64
2017-08-18T05:35:58.783Z,91.06
2017-08-18T05:38:33.790Z,91.28
2017-08-18T05:41:08.374Z,90.99
2017-08-18T05:43:43.353Z,90.87
2017-08-18T05:46:18.639Z,91.19
2017-08-18T05:48:53.511Z,91.20
2017-08-18T05:51:28.339Z,91.17
2017-08-18T05:54:03.043Z,90.78
2017-08-18T05:56:37.698Z,90.60
2017-08-18T05:59:12.397Z,90.36
2017-08-18T06:01:47.226Z,90.01
2017-08-18T06:04:21.948Z,90.19
2017-08-18T06:06:57.628Z,89.88
2017-08-18T06:09:32.293Z,90.28
2017-08-18T06:12:06.703Z,90.81
2017-08-18T06:14:42.656Z,90.65
2017-08-18T06:17:17.484Z,90.68
2017-08-18T06:19:53.172Z,90.35
2017-08-18T06:22:27.915Z,90.16
2017-08-18T06:25:02.560Z,89.98
2017-08-18T06:27:37.243Z,89.79
2017-08-18T06:30:12.911Z,89.04
2017-08-18T06:32:47.524Z,88.22
2017-08-18T06:35:23.028Z,88.34
2017-08-18T06:37:57.703Z,88.04
2017-08-18T06:40:33.395Z,87.12
2017-08-18T06:43:08.006Z,87.30
2017-08-18T06:45:42.612Z,86.52
2017-08-18T06:48:17.744Z,87.04
2017-08-18T06:50:52.723Z,86.63
2017-08-18T06:53:27.579Z,86.49
2017-08-18T06:56:02.608Z,86.22
2017-08-18T06:58:37.027Z,85.59
2017-08-18T07:01:11.808Z,85.95
2017-08-18T07:03:46.416Z,85.58
2017-08-18T07:06:21.111Z,85.95
2017-08-18T07:08:55.895Z,85.96
2017-08-18T07:11:30.783Z,86.63
2017-08-18T07:14:09.228Z,86.79
2017-08-18T07:16:44.413Z,86.40
2017-08-18T07:19:19.434Z,85.44
2017-08-18T07:21:54.176Z,85.47
2017-08-18T07:24:29.004Z,85.58
2017-08-18T07:27:04.123Z,86.30
2017-08-18T07:29:39.055Z,86.23
2017-08-18T07:32:13.899Z,86.56
2017-08-18T07:34:48.699Z,87.45
2017-08-18T07:37:24.660Z,88.22
2017-08-18T07:39:59.334Z,88.75
2017-08-18T07:42:33.954Z,89.56
2017-08-18T07:45:08.643Z,88.92
2017-08-18T07:47:43.367Z,88.94
2017-08-18T07:50:17.898Z,89.60
2017-08-18T07:52:52.544Z,90.03
2017-08-18T07:55:27.496Z,90.90
2017-08-18T07:58:02.207Z,90.29
2017-08-18T08:00:37.114Z,89.88
2017-08-18T08:03:11.752Z,91.01
2017-08-18T08:05:46.395Z,91.13
2017-08-18T08:08:21.156Z,91.43
2017-08-18T08:10:55.851Z,91.46
2017-08-18T08:13:30.556Z,91.33
2017-08-18T08:16:06.411Z,91.03
2017-08-18T08:18:41.139Z,91.23
2017-08-18T08:21:15.872Z,91.20
2017-08-18T08:23:50.497Z,91.65
2017-08-18T08:26:26.375Z,91.66
2017-08-18T08:29:01.100Z,91.86
2017-08-18T08:31:35.809Z,92.16
2017-08-18T08:34:10.428Z,92.17
2017-08-18T08:36:45.266Z,92.42
2017-08-18T08:39:21.155Z,92.19
2017-08-18T08:41:56.871Z,91.92
2017-08-18T08:44:31.620Z,91.83
2017-08-18T08:47:06.145Z,91.35
2017-08-18T08:49:40.876Z,90.96
2017-08-18T08:52:15.795Z,91.08
2017-08-18T08:54:50.926Z,91.07
2017-08-18T08:57:25.555Z,91.45
2017-08-18T08:59:59.943Z,92.65
2017-08-18T09:02:34.824Z,92.36
2017-08-18T09:05:09.556Z,92.58
2017-08-18T09:07:44.735Z,92.47
2017-08-18T09:10:19.342Z,93.07
2017-08-18T09:12:54.171Z,93.00
2017-08-18T09:15:29.064Z,92.13
2017-08-18T09:18:04.150Z,91.76
2017-08-18T09:20:39.072Z,91.61
2017-08-18T09:23:14.940Z,92.09
2017-08-18T09:25:49.612Z,92.90
2017-08-18T09:28:25.295Z,92.96
2017-08-18T09:30:59.902Z,92.34
2017-08-18T09:33:35.676Z,91.60
2017-08-18T09:36:10.184Z,91.45
2017-08-18T09:38:44.967Z,91.93
2017-08-18T09:41:19.715Z,91.83
2017-08-18T09:43:54.364Z,92.09
2017-08-18T09:46:29.095Z,91.79
2017-08-18T09:49:14.990Z,91.47
2017-08-18T09:52:00.664Z,91.16
2017-08-18T09:54:46.544Z,90.67
2017-08-18T09:57:33.652Z,90.05
2017-08-18T10:00:08.152Z,89.90
2017-08-18T10:02:43.340Z,88.84
2017-08-18T10:05:18.363Z,88.57
2017-08-18T10:07:53.219Z,88.40
2017-08-18T10:10:27.942Z,88.96
2017-08-18T10:13:02.646Z,88.26
2017-08-18T10:15:37.676Z,88.41
2017-08-18T10:18:12.407Z,87.99
2017-08-18T10:20:47.556Z,86.88
2017-08-18T10:23:22.344Z,86.48
2017-08-18T10:25:59.366Z,85.89
2017-08-18T10:28:34.972Z,85.44
2017-08-18T10:31:10.176Z,84.60
2017-08-18T10:33:45.096Z,84.87
2017-08-18T10:36:19.878Z,84.39
2017-08-18T10:38:54.540Z,84.21
2017-08-18T10:41:29.415Z,83.19
2017-08-18T10:44:04.139Z,82.50
2017-08-18T10:46:38.935Z,82.80
2017-08-18T10:49:13.797Z,81.06
2017-08-18T10:51:48.403Z,80.77
2017-08-18T10:54:23.168Z,80.12
2017-08-18T10:56:57.907Z,80.68
2017-08-18T10:59:32.620Z,80.52
2017-08-18T11:02:07.434Z,79.27
2017-08-18T11:04:42.147Z,79.47
2017-08-18T11:07:17.123Z,79.95
2017-08-18T11:09:51.735Z,80.03
2017-08-18T11:12:26.346Z,79.22
2017-08-18T11:15:00.868Z,78.99
2017-08-18T11:17:35.712Z,79.47
2017-08-18T11:20:10.347Z,78.87
2017-08-18T11:22:45.144Z,78.48
2017-08-18T11:25:19.878Z,79.81
2017-08-18T11:27:54.504Z,78.99
2017-08-18T11:30:29.233Z,79.03
2017-08-18T11:33:03.954Z,79.53
2017-08-18T11:35:39.570Z,79.75
2017-08-18T11:38:14.272Z,79.52
2017-08-18T11:40:48.776Z,78.82
2017-08-18T11:43:23.499Z,78.81
2017-08-18T11:45:58.403Z,79.22
2017-08-18T11:48:33.156Z,79.43
2017-08-18T11:51:07.878Z,78.76
2017-08-18T11:53:42.568Z,78.52
2017-08-18T11:56:17.024Z,78.51
2017-08-18T11:58:51.720Z,79.05
2017-08-18T12:01:26.479Z,79.25
2017-08-18T12:04:01.116Z,78.00
2017-08-18T12:06:36.315Z,77.24
2017-08-18T12:09:10.816Z,77.91
2017-08-18T12:11:45.418Z,78.14
2017-08-18T12:14:20.270Z,76.83
2017-08-18T12:16:56.007Z,76.84
2017-08-18T12:19:30.687Z,77.65
2017-08-18T12:22:05.659Z,77.33
2017-08-18T12:24:40.292Z,77.78
2017-08-18T12:27:15.006Z,77.90
2017-08-18T12:29:50.975Z,77.70
2017-08-18T12:32:25.799Z,78.46
2017-08-18T12:35:01.809Z,78.33
2017-08-18T12:37:36.282Z,78.47
2017-08-18T12:40:11.034Z,78.24
2017-08-18T12:42:45.876Z,77.50
2017-08-18T12:45:20.722Z,77.77
2017-08-18T12:47:57.487Z,78.52
2017-08-18T12:50:31.994Z,78.67
2017-08-18T12:53:06.811Z,79.58
2017-08-18T12:55:41.662Z,79.62
2017-08-18T12:58:16.143Z,79.30
2017-08-18T13:00:51.054Z,79.21
2017-08-18T13:03:25.743Z,79.53
2017-08-18T13:06:01.576Z,80.32
2017-08-18T13:08:36.442Z,80.60
2017-08-18T13:11:11.069Z,80.95
2017-08-18T13:13:45.744Z,81.50
2017-08-18T13:16:20.479Z,81.01
2017-08-18T13:18:55.311Z,80.90
2017-08-18T13:21:30.388Z,80.77
2017-08-18T13:24:05.004Z,80.81
2017-08-18T13:26:39.743Z,80.83
2017-08-18T13:29:14.567Z,80.66
2017-08-18T13:31:48.976Z,81.44
2017-08-18T13:34:24.326Z,81.45
2017-08-18T13:36:58.971Z,81.82
2017-08-18T13:39:33.580Z,82.62
2017-08-18T13:42:08.036Z,83.26
2017-08-18T13:44:43.255Z,83.10
2017-08-18T13:47:17.895Z,81.70
2017-08-18T13:49:52.658Z,83.58
2017-08-18T13:52:28.406Z,84.16
2017-08-18T13:55:03.447Z,83.48
2017-08-18T13:57:38.523Z,82.77
2017-08-18T14:00:13.399Z,83.62
2017-08-18T14:02:48.415Z,83.93
2017-08-18T14:05:23.200Z,83.65
2017-08-18T14:07:58.314Z,83.03
2017-08-18T14:10:34.096Z,82.57
2017-08-18T14:13:08.796Z,82.43
2017-08-18T14:15:43.538Z,82.03
2017-08-18T14:18:18.543Z,82.08
2017-08-18T14:20:53.556Z,81.14
2017-08-18T14:23:28.166Z,80.80
2017-08-18T14:26:08.343Z,81.67
2017-08-18T14:28:42.780Z,81.93
2017-08-18T14:31:17.591Z,82.93
2017-08-18T14:33:52.435Z,83.53
2017-08-18T14:36:27.346Z,83.32
2017-08-18T14:39:02.935Z,82.97
2017-08-18T14:41:38.208Z,83.00
2017-08-18T14:44:13.100Z,83.12
2017-08-18T14:46:47.831Z,83.80
2017-08-18T14:49:22.798Z,84.18
2017-08-18T14:51:57.843Z,84.35
2017-08-18T14:54:32.598Z,83.96
2017-08-18T14:57:08.350Z,84.37
2017-08-18T14:59:43.166Z,84.27
2017-08-18T15:02:18.007Z,84.83
2017-08-18T15:04:52.872Z,84.65
2017-08-18T15:07:27.562Z,85.49
2017-08-18T15:10:02.542Z,84.89
2017-08-18T15:12:37.207Z,85.35
2017-08-18T15:15:12.872Z,85.24
2017-08-18T15:17:47.779Z,84.33
2017-08-18T15:20:22.631Z,83.81
2017-08-18T15:22:57.450Z,83.12
2017-08-18T15:25:32.315Z,82.70
2017-08-18T15:28:08.027Z,82.86
2017-08-18T15:30:42.941Z,82.85
2017-08-18T15:33:17.682Z,82.84
2017-08-18T15:35:52.335Z,83.00
2017-08-18T15:38:26.926Z,82.58
2017-08-18T15:41:01.819Z,82.37
2017-08-18T15:43:36.635Z,81.96
2017-08-18T15:46:12.350Z,82.01
2017-08-18T15:48:47.015Z,82.46
2017-08-18T15:51:21.735Z,83.49
2017-08-18T15:53:56.577Z,82.67
2017-08-18T15:56:31.293Z,82.97
2017-08-18T15:59:06.226Z,82.48
2017-08-18T16:01:40.983Z,83.16
2017-08-18T16:04:15.851Z,83.04
2017-08-18T16:06:50.679Z,83.37
2017-08-18T16:09:25.315Z,83.94
2017-08-18T16:12:01.316Z,84.01
2017-08-18T16:14:35.931Z,84.38
2017-08-18T16:17:10.807Z,84.19
2017-08-18T16:19:45.481Z,84.74
2017-08-18T16:22:20.823Z,85.08
2017-08-18T16:24:55.612Z,85.16
2017-08-18T16:27:30.374Z,85.51
2017-08-18T16:30:05.006Z,85.46
2017-08-18T16:32:39.721Z,85.32
2017-08-18T16:35:14.553Z,85.77
2017-08-18T16:37:48.947Z,86.00
2017-08-18T16:40:23.842Z,86.41
2017-08-18T16:42:58.347Z,86.86
2017-08-18T16:45:33.295Z,86.87
2017-08-18T16:48:07.959Z,87.44
2017-08-18T16:50:42.611Z,87.33
2017-08-18T16:53:17.463Z,87.48
2017-08-18T16:55:52.382Z,87.70
2017-08-18T16:58:27.163Z,88.01
2017-08-18T17:01:02.232Z,87.37
2017-08-18T17:03:36.942Z,87.41
2017-08-18T17:06:11.751Z,87.84
2017-08-18T17:08:47.588Z,88.71
2017-08-18T17:11:22.277Z,88.70
2017-08-18T17:13:57.147Z,89.08
2017-08-18T17:16:31.891Z,88.63
2017-08-18T17:19:06.627Z,88.30
2017-08-18T17:21:41.340Z,87.81
2017-08-18T17:24:15.844Z,88.41
2017-08-18T17:26:50.971Z,88.37
2017-08-18T17:29:26.248Z,88.25
2017-08-18T17:32:01.070Z,88.31
2017-08-18T17:34:35.848Z,88.40
2017-08-18T17:37:10.639Z,88.90
2017-08-18T17:39:45.447Z,88.71
2017-08-18T17:42:20.240Z,88.67
2017-08-18T17:44:55.195Z,88.52
2017-08-18T17:47:29.926Z,88.37
2017-08-18T17:50:04.669Z,88.56
2017-08-18T17:52:39.275Z,89.03
2017-08-18T17:55:14.116Z,89.15
2017-08-18T17:57:49.953Z,89.15
2017-08-18T18:00:24.714Z,88.92
2017-08-18T18:02:59.224Z,88.91
2017-08-18T18:05:34.052Z,89.14
2017-08-18T18:08:09.706Z,89.20
2017-08-18T18:10:44.329Z,89.38
2017-08-18T18:13:20.200Z,89.44
2017-08-18T18:15:55.031Z,89.52
2017-08-18T18:18:29.718Z,89.23
2017-08-18T18:21:04.460Z,89.27
2017-08-18T18:23:39.195Z,89.36
2017-08-18T18:26:13.928Z,89.47
2017-08-18T18:28:48.909Z,89.58
2017-08-18T18:31:24.524Z,89.72
2017-08-18T18:33:59.235Z,89.68
2017-08-18T18:36:33.963Z,89.96
2017-08-18T18:39:08.978Z,90.27
2017-08-18T18:41:44.247Z,90.18
2017-08-18T18:44:19.078Z,90.35
2017-08-18T18:46:53.899Z,90.62
2017-08-18T18:49:28.312Z,90.99
2017-08-18T18:52:03.102Z,91.25
2017-08-18T18:54:37.819Z,91.47
2017-08-18T18:57:12.685Z,91.77
2017-08-18T18:59:47.239Z,91.88
2017-08-18T19:02:22.323Z,91.76
2017-08-18T19:04:57.243Z,91.59
2017-08-18T19:07:32.775Z,91.27
2017-08-18T19:10:07.416Z,91.60
2017-08-18T19:12:42.150Z,91.22
2017-08-18T19:15:17.154Z,91.10
2017-08-18T19:17:51.985Z,90.23
2017-08-18T19:20:26.532Z,90.32
2017-08-18T19:23:01.631Z,90.36
2017-08-18T19:25:36.216Z,90.17
2017-08-18T19:28:11.003Z,90.26
2017-08-18T19:30:46.240Z,89.39
2017-08-18T19:33:22.124Z,88.85
2017-08-18T19:35:56.719Z,88.84
2017-08-18T19:38:31.469Z,88.85
2017-08-18T19:41:06.383Z,88.90
2017-08-18T19:43:41.082Z,89.49
2017-08-18T19:46:15.774Z,89.59
2017-08-18T19:48:50.587Z,89.37
2017-08-18T19:51:25.599Z,89.42
2017-08-18T19:54:00.664Z,89.08
2017-08-18T19:56:35.372Z,88.59
2017-08-18T19:59:10.125Z,88.10
2017-08-18T20:01:44.852Z,87.90
2017-08-18T20:04:19.498Z,87.62
2017-08-18T20:06:54.219Z,87.85
2017-08-18T20:09:28.807Z,87.84
2017-08-18T20:12:03.486Z,88.08
2017-08-18T20:14:38.235Z,88.19
2017-08-18T20:17:14.004Z,88.36
2017-08-18T20:19:48.755Z,88.70
2017-08-18T20:22:23.350Z,88.48
2017-08-18T20:24:58.603Z,87.81
2017-08-18T20:27:33.139Z,87.52
2017-08-18T20:30:07.864Z,87.84
2017-08-18T20:32:42.775Z,87.70
2017-08-18T20:35:18.080Z,88.70
2017-08-18T20:37:52.859Z,89.23
2017-08-18T20:40:27.686Z,89.14
2017-08-18T20:43:02.468Z,89.17
2017-08-18T20:45:37.206Z,89.56
2017-08-18T20:48:11.818Z,90.40
2017-08-18T20:50:46.516Z,89.95
2017-08-18T20:53:21.282Z,89.75
2017-08-18T20:55:56.021Z,89.97
2017-08-18T20:58:30.755Z,89.87
2017-08-18T21:01:05.630Z,89.82
2017-08-18T21:03:40.339Z,89.70
2017-08-18T21:06:15.096Z,89.91
2017-08-18T21:08:50.304Z,90.11
2017-08-18T21:11:25.176Z,90.23
2017-08-18T21:14:00.015Z,90.34
2017-08-18T21:16:35.030Z,90.94
2017-08-18T21:19:09.951Z,91.07
2017-08-18T21:21:44.690Z,91.18
2017-08-18T21:24:20.223Z,91.34
2017-08-18T21:26:54.775Z,91.68
2017-08-18T21:29:29.514Z,91.86
2017-08-18T21:32:04.461Z,92.12
2017-08-18T21:34:39.583Z,90.95
2017-08-18T21:37:14.326Z,91.24
2017-08-18T21:39:49.303Z,91.13
2017-08-18T21:42:25.163Z,90.63
2017-08-18T21:44:59.946Z,89.98
2017-08-18T21:47:34.734Z,88.76
2017-08-18T21:50:09.604Z,89.40
2017-08-18T21:52:44.323Z,89.64
2017-08-18T21:55:18.998Z,89.68
2017-08-18T21:57:53.755Z,89.04
2017-08-18T22:00:28.143Z,89.21
2017-08-18T22:03:03.140Z,89.12
2017-08-18T22:05:38.143Z,89.20
2017-08-18T22:08:12.985Z,88.54
2017-08-18T22:10:47.799Z,88.19
2017-08-18T22:13:23.565Z,88.80
2017-08-18T22:15:58.360Z,88.60
2017-08-18T22:18:33.040Z,89.12
2017-08-18T22:21:07.945Z,89.16
2017-08-18T22:23:43.915Z,89.28
2017-08-18T22:26:19.671Z,89.41
2017-08-18T22:28:54.414Z,90.05
2017-08-18T22:31:29.130Z,89.80
2017-08-18T22:34:03.951Z,89.91
2017-08-18T22:36:39.811Z,89.99
2017-08-18T22:39:14.660Z,89.95
2017-08-18T22:41:49.435Z,90.47
2017-08-18T22:44:24.272Z,90.45
2017-08-18T22:47:00.043Z,90.21
2017-08-18T22:49:34.914Z,89.95
2017-08-18T22:52:09.803Z,89.51
2017-08-18T22:54:44.782Z,89.44
2017-08-18T22:57:19.814Z,89.36
2017-08-18T22:59:55.561Z,89.06
2017-08-18T23:02:30.427Z,88.54
2017-08-18T23:05:06.240Z,88.71
2017-08-18T23:07:41.770Z,89.26
2017-08-18T23:10:16.415Z,89.23
2017-08-18T23:12:51.240Z,89.18
2017-08-18T23:15:27.181Z,89.11
2017-08-18T23:18:02.068Z,88.73
2017-08-18T23:20:36.859Z,88.84
2017-08-18T23:23:12.576Z,88.59
2017-08-18T23:25:47.220Z,88.84
2017-08-18T23:28:22.304Z,88.59
2017-08-18T23:30:58.018Z,88.48
2017-08-18T23:33:32.764Z,88.65
2017-08-18T23:36:08.702Z,88.38
2017-08-18T23:38:43.658Z,89.21
2017-08-18T23:41:18.565Z,88.83
2017-08-18T23:43:54.175Z,88.91
2017-08-18T23:46:28.810Z,89.23
2017-08-18T23:49:03.706Z,89.63
2017-08-18T23:51:38.432Z,89.48
2017-08-18T23:54:13.364Z,89.62
2017-08-18T23:56:48.207Z,89.95
2017-08-18T23:59:22.919Z,90.22
